sensor_id;sensor_type;location;lat;lon;timestamp;P1;durP1;ratioP1;P2;durP2;ratioP2
62024;SDS011;47978;49.118;12.146;2023-08-31T00:02:28;10.57;;;7.22;;
62024;SDS011;47978;49.118;12.146;2023-08-31T00:06:31;9.02;;;6.80;;
62024;SDS011;47978;49.118;12.146;2023-08-31T00:10:33;9.43;;;7.15;;
62024;SDS011;47978;49.118;12.146;2023-08-31T00:14:34;10.85;;;6.90;;
62024;SDS011;47978;49.118;12.146;2023-08-31T00:18:36;9.68;;;7.45;;
62024;SDS011;47978;49.118;12.146;2023-08-31T00:22:39;10.55;;;6.57;;
62024;SDS011;47978;49.118;12.146;2023-08-31T00:26:40;8.82;;;7.10;;
62024;SDS011;47978;49.118;12.146;2023-08-31T00:30:42;9.32;;;7.00;;
62024;SDS011;47978;49.118;12.146;2023-08-31T00:34:44;8.55;;;6.28;;
62024;SDS011;47978;49.118;12.146;2023-08-31T00:38:46;9.57;;;7.10;;
62024;SDS011;47978;49.118;12.146;2023-08-31T00:42:48;8.27;;;6.70;;
62024;SDS011;47978;49.118;12.146;2023-08-31T00:46:49;10.30;;;7.03;;
62024;SDS011;47978;49.118;12.146;2023-08-31T00:50:51;11.23;;;7.00;;
62024;SDS011;47978;49.118;12.146;2023-08-31T00:54:55;13.05;;;6.70;;
62024;SDS011;47978;49.118;12.146;2023-08-31T01:02:59;8.75;;;6.20;;
62024;SDS011;47978;49.118;12.146;2023-08-31T01:07:09;7.55;;;5.93;;
62024;SDS011;47978;49.118;12.146;2023-08-31T01:11:21;12.20;;;6.97;;
62024;SDS011;47978;49.118;12.146;2023-08-31T01:15:31;10.33;;;6.27;;
62024;SDS011;47978;49.118;12.146;2023-08-31T01:23:55;9.40;;;5.95;;
62024;SDS011;47978;49.118;12.146;2023-08-31T01:27:57;6.53;;;5.63;;
62024;SDS011;47978;49.118;12.146;2023-08-31T01:31:59;9.63;;;5.10;;
62024;SDS011;47978;49.118;12.146;2023-08-31T01:36:01;6.75;;;5.68;;
62024;SDS011;47978;49.118;12.146;2023-08-31T01:40:08;9.77;;;5.50;;
62024;SDS011;47978;49.118;12.146;2023-08-31T01:44:13;9.25;;;5.32;;
62024;SDS011;47978;49.118;12.146;2023-08-31T01:48:17;5.70;;;5.00;;
62024;SDS011;47978;49.118;12.146;2023-08-31T01:52:19;7.95;;;5.13;;
62024;SDS011;47978;49.118;12.146;2023-08-31T01:56:21;7.22;;;5.30;;
62024;SDS011;47978;49.118;12.146;2023-08-31T02:00:23;6.88;;;4.63;;
62024;SDS011;47978;49.118;12.146;2023-08-31T02:04:26;6.78;;;5.57;;
62024;SDS011;47978;49.118;12.146;2023-08-31T02:08:27;8.80;;;4.57;;
62024;SDS011;47978;49.118;12.146;2023-08-31T02:12:30;6.13;;;4.70;;
62024;SDS011;47978;49.118;12.146;2023-08-31T02:16:32;7.35;;;5.07;;
62024;SDS011;47978;49.118;12.146;2023-08-31T02:20:33;5.07;;;4.30;;
62024;SDS011;47978;49.118;12.146;2023-08-31T02:24:35;6.68;;;4.80;;
62024;SDS011;47978;49.118;12.146;2023-08-31T02:28:38;5.50;;;4.60;;
62024;SDS011;47978;49.118;12.146;2023-08-31T02:32:39;6.00;;;3.88;;
62024;SDS011;47978;49.118;12.146;2023-08-31T02:36:41;5.57;;;4.15;;
62024;SDS011;47978;49.118;12.146;2023-08-31T02:40:45;5.07;;;3.85;;
62024;SDS011;47978;49.118;12.146;2023-08-31T02:44:48;4.47;;;3.35;;
62024;SDS011;47978;49.118;12.146;2023-08-31T02:48:53;7.03;;;3.72;;
62024;SDS011;47978;49.118;12.146;2023-08-31T02:52:54;6.93;;;3.88;;
62024;SDS011;47978;49.118;12.146;2023-08-31T02:56:56;4.78;;;3.88;;
62024;SDS011;47978;49.118;12.146;2023-08-31T03:01:07;5.38;;;3.28;;
62024;SDS011;47978;49.118;12.146;2023-08-31T03:05:09;4.45;;;3.50;;
62024;SDS011;47978;49.118;12.146;2023-08-31T03:09:11;5.13;;;3.90;;
62024;SDS011;47978;49.118;12.146;2023-08-31T03:13:12;7.88;;;3.70;;
62024;SDS011;47978;49.118;12.146;2023-08-31T03:17:16;6.75;;;4.00;;
62024;SDS011;47978;49.118;12.146;2023-08-31T03:21:17;5.72;;;3.80;;
62024;SDS011;47978;49.118;12.146;2023-08-31T03:25:19;4.22;;;3.75;;
62024;SDS011;47978;49.118;12.146;2023-08-31T03:29:20;6.65;;;4.10;;
62024;SDS011;47978;49.118;12.146;2023-08-31T03:33:23;5.10;;;3.75;;
62024;SDS011;47978;49.118;12.146;2023-08-31T03:37:25;4.38;;;3.80;;
62024;SDS011;47978;49.118;12.146;2023-08-31T03:41:26;7.18;;;3.67;;
62024;SDS011;47978;49.118;12.146;2023-08-31T03:45:28;5.00;;;4.07;;
62024;SDS011;47978;49.118;12.146;2023-08-31T03:49:31;4.93;;;4.13;;
62024;SDS011;47978;49.118;12.146;2023-08-31T03:53:32;5.95;;;4.03;;
62024;SDS011;47978;49.118;12.146;2023-08-31T03:57:34;5.50;;;4.00;;
62024;SDS011;47978;49.118;12.146;2023-08-31T04:01:36;7.30;;;4.20;;
62024;SDS011;47978;49.118;12.146;2023-08-31T04:05:39;7.20;;;4.72;;
62024;SDS011;47978;49.118;12.146;2023-08-31T04:09:40;6.57;;;5.13;;
62024;SDS011;47978;49.118;12.146;2023-08-31T04:13:42;5.07;;;4.25;;
62024;SDS011;47978;49.118;12.146;2023-08-31T04:17:43;6.93;;;4.80;;
62024;SDS011;47978;49.118;12.146;2023-08-31T04:21:46;8.30;;;4.63;;
62024;SDS011;47978;49.118;12.146;2023-08-31T04:25:48;8.43;;;4.75;;
62024;SDS011;47978;49.118;12.146;2023-08-31T04:29:50;7.75;;;5.50;;
62024;SDS011;47978;49.118;12.146;2023-08-31T04:33:51;8.73;;;4.75;;
62024;SDS011;47978;49.118;12.146;2023-08-31T04:37:54;10.93;;;5.43;;
62024;SDS011;47978;49.118;12.146;2023-08-31T04:41:56;6.20;;;4.68;;
62024;SDS011;47978;49.118;12.146;2023-08-31T04:45:57;7.95;;;4.40;;
62024;SDS011;47978;49.118;12.146;2023-08-31T04:49:59;7.03;;;4.35;;
62024;SDS011;47978;49.118;12.146;2023-08-31T04:54:02;8.85;;;5.00;;
62024;SDS011;47978;49.118;12.146;2023-08-31T04:58:04;9.02;;;5.18;;
62024;SDS011;47978;49.118;12.146;2023-08-31T05:02:05;6.95;;;5.10;;
62024;SDS011;47978;49.118;12.146;2023-08-31T05:06:07;10.55;;;6.43;;
62024;SDS011;47978;49.118;12.146;2023-08-31T05:10:10;7.43;;;5.65;;
62024;SDS011;47978;49.118;12.146;2023-08-31T05:14:12;7.75;;;5.20;;
62024;SDS011;47978;49.118;12.146;2023-08-31T05:18:13;9.73;;;5.53;;
62024;SDS011;47978;49.118;12.146;2023-08-31T05:22:15;7.07;;;4.85;;
62024;SDS011;47978;49.118;12.146;2023-08-31T05:26:17;6.20;;;4.55;;
62024;SDS011;47978;49.118;12.146;2023-08-31T05:30:19;10.45;;;4.57;;
62024;SDS011;47978;49.118;12.146;2023-08-31T05:34:21;6.07;;;4.38;;
62024;SDS011;47978;49.118;12.146;2023-08-31T05:38:23;6.35;;;4.72;;
62024;SDS011;47978;49.118;12.146;2023-08-31T05:42:26;9.85;;;4.55;;
62024;SDS011;47978;49.118;12.146;2023-08-31T05:46:27;4.97;;;4.05;;
62024;SDS011;47978;49.118;12.146;2023-08-31T05:50:29;7.65;;;3.90;;
62024;SDS011;47978;49.118;12.146;2023-08-31T05:54:31;6.22;;;4.03;;
62024;SDS011;47978;49.118;12.146;2023-08-31T05:58:35;4.60;;;3.92;;
62024;SDS011;47978;49.118;12.146;2023-08-31T06:02:37;8.35;;;3.97;;
62024;SDS011;47978;49.118;12.146;2023-08-31T06:06:39;6.13;;;4.03;;
62024;SDS011;47978;49.118;12.146;2023-08-31T06:10:40;5.63;;;3.67;;
62024;SDS011;47978;49.118;12.146;2023-08-31T06:14:43;5.43;;;3.25;;
62024;SDS011;47978;49.118;12.146;2023-08-31T06:18:44;4.18;;;3.20;;
62024;SDS011;47978;49.118;12.146;2023-08-31T06:22:46;3.33;;;2.63;;
62024;SDS011;47978;49.118;12.146;2023-08-31T06:26:48;4.65;;;3.03;;
62024;SDS011;47978;49.118;12.146;2023-08-31T06:30:50;5.88;;;3.53;;
62024;SDS011;47978;49.118;12.146;2023-08-31T06:34:52;4.90;;;3.53;;
62024;SDS011;47978;49.118;12.146;2023-08-31T06:38:54;3.60;;;2.65;;
62024;SDS011;47978;49.118;12.146;2023-08-31T06:42:55;5.95;;;3.60;;
62024;SDS011;47978;49.118;12.146;2023-08-31T06:46:58;6.45;;;4.22;;
62024;SDS011;47978;49.118;12.146;2023-08-31T06:51:00;6.55;;;4.30;;
62024;SDS011;47978;49.118;12.146;2023-08-31T06:55:01;5.05;;;3.63;;
62024;SDS011;47978;49.118;12.146;2023-08-31T06:59:03;8.05;;;4.40;;
62024;SDS011;47978;49.118;12.146;2023-08-31T07:03:06;7.57;;;4.10;;
62024;SDS011;47978;49.118;12.146;2023-08-31T07:11:09;6.38;;;4.28;;
62024;SDS011;47978;49.118;12.146;2023-08-31T07:15:11;9.75;;;4.15;;
62024;SDS011;47978;49.118;12.146;2023-08-31T07:19:14;8.52;;;3.92;;
62024;SDS011;47978;49.118;12.146;2023-08-31T07:23:15;4.07;;;2.85;;
62024;SDS011;47978;49.118;12.146;2023-08-31T07:27:17;4.80;;;3.50;;
62024;SDS011;47978;49.118;12.146;2023-08-31T07:31:19;5.20;;;3.15;;
62024;SDS011;47978;49.118;12.146;2023-08-31T07:35:22;4.65;;;2.92;;
62024;SDS011;47978;49.118;12.146;2023-08-31T07:43:25;4.18;;;3.10;;
62024;SDS011;47978;49.118;12.146;2023-08-31T07:47:27;4.97;;;3.28;;
62024;SDS011;47978;49.118;12.146;2023-08-31T07:51:30;8.80;;;3.60;;
62024;SDS011;47978;49.118;12.146;2023-08-31T07:55:31;6.55;;;2.85;;
62024;SDS011;47978;49.118;12.146;2023-08-31T07:59:33;5.38;;;2.55;;
62024;SDS011;47978;49.118;12.146;2023-08-31T08:03:34;6.25;;;2.88;;
62024;SDS011;47978;49.118;12.146;2023-08-31T08:07:37;5.53;;;3.30;;
62024;SDS011;47978;49.118;12.146;2023-08-31T08:11:39;4.07;;;2.70;;
62024;SDS011;47978;49.118;12.146;2023-08-31T08:15:40;6.18;;;2.92;;
62024;SDS011;47978;49.118;12.146;2023-08-31T08:19:42;6.00;;;2.50;;
62024;SDS011;47978;49.118;12.146;2023-08-31T08:23:45;4.28;;;2.60;;
62024;SDS011;47978;49.118;12.146;2023-08-31T08:27:47;5.82;;;2.60;;
62024;SDS011;47978;49.118;12.146;2023-08-31T08:31:48;7.55;;;2.83;;
62024;SDS011;47978;49.118;12.146;2023-08-31T08:35:50;3.60;;;1.90;;
62024;SDS011;47978;49.118;12.146;2023-08-31T08:39:53;7.47;;;2.80;;
62024;SDS011;47978;49.118;12.146;2023-08-31T08:47:57;4.22;;;2.00;;
62024;SDS011;47978;49.118;12.146;2023-08-31T08:52:00;6.50;;;2.30;;
62024;SDS011;47978;49.118;12.146;2023-08-31T08:56:03;8.20;;;2.58;;
62024;SDS011;47978;49.118;12.146;2023-08-31T09:00:06;3.55;;;2.40;;
62024;SDS011;47978;49.118;12.146;2023-08-31T09:04:08;8.20;;;1.98;;
62024;SDS011;47978;49.118;12.146;2023-08-31T09:08:11;4.97;;;2.22;;
62024;SDS011;47978;49.118;12.146;2023-08-31T09:12:14;3.15;;;2.30;;
62024;SDS011;47978;49.118;12.146;2023-08-31T09:16:23;5.88;;;2.22;;
62024;SDS011;47978;49.118;12.146;2023-08-31T09:20:25;11.40;;;2.70;;
62024;SDS011;47978;49.118;12.146;2023-08-31T09:24:27;8.60;;;2.05;;
62024;SDS011;47978;49.118;12.146;2023-08-31T09:28:29;4.63;;;2.47;;
62024;SDS011;47978;49.118;12.146;2023-08-31T09:32:31;4.80;;;2.22;;
62024;SDS011;47978;49.118;12.146;2023-08-31T09:36:33;5.70;;;2.35;;
62024;SDS011;47978;49.118;12.146;2023-08-31T09:40:35;5.65;;;2.03;;
62024;SDS011;47978;49.118;12.146;2023-08-31T09:44:42;3.90;;;1.63;;
62024;SDS011;47978;49.118;12.146;2023-08-31T09:48:44;3.53;;;2.15;;
62024;SDS011;47978;49.118;12.146;2023-08-31T09:52:48;2.90;;;1.90;;
62024;SDS011;47978;49.118;12.146;2023-08-31T09:56:55;5.25;;;2.08;;
62024;SDS011;47978;49.118;12.146;2023-08-31T10:00:58;8.13;;;2.00;;
62024;SDS011;47978;49.118;12.146;2023-08-31T10:05:00;4.30;;;2.17;;
62024;SDS011;47978;49.118;12.146;2023-08-31T10:09:04;5.18;;;2.10;;
62024;SDS011;47978;49.118;12.146;2023-08-31T10:13:06;3.80;;;1.57;;
62024;SDS011;47978;49.118;12.146;2023-08-31T10:17:09;9.17;;;3.00;;
62024;SDS011;47978;49.118;12.146;2023-08-31T10:21:11;8.95;;;2.75;;
62024;SDS011;47978;49.118;12.146;2023-08-31T10:25:17;6.68;;;2.42;;
62024;SDS011;47978;49.118;12.146;2023-08-31T10:29:27;4.88;;;2.13;;
62024;SDS011;47978;49.118;12.146;2023-08-31T10:33:32;7.18;;;2.17;;
62024;SDS011;47978;49.118;12.146;2023-08-31T10:37:34;5.88;;;1.80;;
62024;SDS011;47978;49.118;12.146;2023-08-31T10:41:36;6.57;;;1.90;;
62024;SDS011;47978;49.118;12.146;2023-08-31T10:45:43;7.47;;;2.22;;
62024;SDS011;47978;49.118;12.146;2023-08-31T10:49:51;4.93;;;1.80;;
62024;SDS011;47978;49.118;12.146;2023-08-31T10:53:59;4.65;;;2.53;;
62024;SDS011;47978;49.118;12.146;2023-08-31T10:58:09;8.07;;;2.60;;
62024;SDS011;47978;49.118;12.146;2023-08-31T11:02:26;6.80;;;2.00;;
62024;SDS011;47978;49.118;12.146;2023-08-31T11:06:33;10.75;;;2.50;;
62024;SDS011;47978;49.118;12.146;2023-08-31T11:14:36;6.70;;;2.05;;
62024;SDS011;47978;49.118;12.146;2023-08-31T11:18:38;5.13;;;2.03;;
62024;SDS011;47978;49.118;12.146;2023-08-31T11:22:41;2.97;;;1.58;;
62024;SDS011;47978;49.118;12.146;2023-08-31T11:26:44;5.70;;;2.28;;
62024;SDS011;47978;49.118;12.146;2023-08-31T11:30:48;3.00;;;1.52;;
62024;SDS011;47978;49.118;12.146;2023-08-31T11:34:50;3.10;;;1.85;;
62024;SDS011;47978;49.118;12.146;2023-08-31T11:38:53;4.88;;;1.77;;
62024;SDS011;47978;49.118;12.146;2023-08-31T11:42:55;6.35;;;2.22;;
62024;SDS011;47978;49.118;12.146;2023-08-31T11:46:58;5.93;;;2.63;;
62024;SDS011;47978;49.118;12.146;2023-08-31T11:51:00;4.43;;;2.05;;
62024;SDS011;47978;49.118;12.146;2023-08-31T11:55:08;3.13;;;1.73;;
62024;SDS011;47978;49.118;12.146;2023-08-31T11:59:12;4.75;;;2.38;;
62024;SDS011;47978;49.118;12.146;2023-08-31T12:03:16;5.78;;;1.95;;
62024;SDS011;47978;49.118;12.146;2023-08-31T12:07:18;5.90;;;1.93;;
62024;SDS011;47978;49.118;12.146;2023-08-31T12:11:21;2.90;;;1.07;;
62024;SDS011;47978;49.118;12.146;2023-08-31T12:15:23;6.93;;;2.13;;
62024;SDS011;47978;49.118;12.146;2023-08-31T12:19:32;2.17;;;1.27;;
62024;SDS011;47978;49.118;12.146;2023-08-31T12:23:34;5.55;;;1.70;;
62024;SDS011;47978;49.118;12.146;2023-08-31T12:27:37;3.60;;;1.85;;
62024;SDS011;47978;49.118;12.146;2023-08-31T12:35:40;4.00;;;1.90;;
62024;SDS011;47978;49.118;12.146;2023-08-31T12:39:42;3.40;;;2.08;;
62024;SDS011;47978;49.118;12.146;2023-08-31T12:43:44;6.57;;;1.92;;
62024;SDS011;47978;49.118;12.146;2023-08-31T12:51:49;1.48;;;1.13;;
62024;SDS011;47978;49.118;12.146;2023-08-31T12:55:50;7.47;;;2.17;;
62024;SDS011;47978;49.118;12.146;2023-08-31T12:59:53;4.65;;;2.03;;
62024;SDS011;47978;49.118;12.146;2023-08-31T13:07:56;7.15;;;2.25;;
62024;SDS011;47978;49.118;12.146;2023-08-31T13:11:58;4.03;;;1.80;;
62024;SDS011;47978;49.118;12.146;2023-08-31T13:16:01;4.25;;;2.15;;
62024;SDS011;47978;49.118;12.146;2023-08-31T13:24:04;5.65;;;2.22;;
62024;SDS011;47978;49.118;12.146;2023-08-31T13:28:06;3.97;;;2.67;;
62024;SDS011;47978;49.118;12.146;2023-08-31T13:32:09;4.35;;;1.98;;
62024;SDS011;47978;49.118;12.146;2023-08-31T13:36:11;6.57;;;2.22;;
62024;SDS011;47978;49.118;12.146;2023-08-31T13:40:12;3.83;;;2.13;;
62024;SDS011;47978;49.118;12.146;2023-08-31T13:44:14;5.72;;;2.20;;
62024;SDS011;47978;49.118;12.146;2023-08-31T13:48:17;6.50;;;2.20;;
62024;SDS011;47978;49.118;12.146;2023-08-31T13:52:19;4.63;;;1.90;;
62024;SDS011;47978;49.118;12.146;2023-08-31T13:56:21;4.78;;;2.50;;
62024;SDS011;47978;49.118;12.146;2023-08-31T14:00:22;3.80;;;2.53;;
62024;SDS011;47978;49.118;12.146;2023-08-31T14:04:25;4.03;;;2.15;;
62024;SDS011;47978;49.118;12.146;2023-08-31T14:12:28;6.63;;;2.20;;
62024;SDS011;47978;49.118;12.146;2023-08-31T14:16:29;4.68;;;2.55;;
62024;SDS011;47978;49.118;12.146;2023-08-31T14:20:33;3.90;;;2.30;;
62024;SDS011;47978;49.118;12.146;2023-08-31T14:24:35;5.95;;;2.65;;
62024;SDS011;47978;49.118;12.146;2023-08-31T14:28:36;7.32;;;2.50;;
62024;SDS011;47978;49.118;12.146;2023-08-31T14:32:38;6.93;;;2.83;;
62024;SDS011;47978;49.118;12.146;2023-08-31T14:36:41;6.05;;;2.40;;
62024;SDS011;47978;49.118;12.146;2023-08-31T14:44:45;4.93;;;2.28;;
62024;SDS011;47978;49.118;12.146;2023-08-31T14:48:46;3.83;;;2.38;;
62024;SDS011;47978;49.118;12.146;2023-08-31T14:52:49;4.40;;;1.90;;
62024;SDS011;47978;49.118;12.146;2023-08-31T14:56:51;5.55;;;2.30;;
62024;SDS011;47978;49.118;12.146;2023-08-31T15:00:55;6.00;;;3.05;;
62024;SDS011;47978;49.118;12.146;2023-08-31T15:04:56;8.00;;;2.47;;
62024;SDS011;47978;49.118;12.146;2023-08-31T15:08:59;4.35;;;2.47;;
62024;SDS011;47978;49.118;12.146;2023-08-31T15:17:03;4.15;;;2.20;;
62024;SDS011;47978;49.118;12.146;2023-08-31T15:21:04;4.50;;;1.77;;
62024;SDS011;47978;49.118;12.146;2023-08-31T15:25:07;4.80;;;2.30;;
62024;SDS011;47978;49.118;12.146;2023-08-31T15:29:09;5.25;;;2.30;;
62024;SDS011;47978;49.118;12.146;2023-08-31T15:33:11;5.80;;;2.25;;
62024;SDS011;47978;49.118;12.146;2023-08-31T15:37:12;8.70;;;2.72;;
62024;SDS011;47978;49.118;12.146;2023-08-31T15:41:15;4.82;;;2.33;;
62024;SDS011;47978;49.118;12.146;2023-08-31T15:49:18;6.75;;;2.95;;
62024;SDS011;47978;49.118;12.146;2023-08-31T15:53:20;4.78;;;2.25;;
62024;SDS011;47978;49.118;12.146;2023-08-31T15:57:23;4.30;;;2.45;;
62024;SDS011;47978;49.118;12.146;2023-08-31T16:05:26;7.35;;;2.85;;
62024;SDS011;47978;49.118;12.146;2023-08-31T16:09:27;3.60;;;2.05;;
62024;SDS011;47978;49.118;12.146;2023-08-31T16:13:30;4.03;;;2.17;;
62024;SDS011;47978;49.118;12.146;2023-08-31T16:17:32;4.22;;;2.20;;
62024;SDS011;47978;49.118;12.146;2023-08-31T16:21:33;3.97;;;2.10;;
62024;SDS011;47978;49.118;12.146;2023-08-31T16:25:35;5.40;;;2.72;;
62024;SDS011;47978;49.118;12.146;2023-08-31T16:29:38;7.07;;;2.30;;
62024;SDS011;47978;49.118;12.146;2023-08-31T16:41:48;5.03;;;2.05;;
62024;SDS011;47978;49.118;12.146;2023-08-31T16:45:53;9.32;;;2.58;;
62024;SDS011;47978;49.118;12.146;2023-08-31T16:49:57;5.88;;;2.05;;
62024;SDS011;47978;49.118;12.146;2023-08-31T16:53:59;3.58;;;2.50;;
62024;SDS011;47978;49.118;12.146;2023-08-31T16:58:01;6.07;;;2.40;;
62024;SDS011;47978;49.118;12.146;2023-08-31T17:02:04;5.90;;;2.70;;
62024;SDS011;47978;49.118;12.146;2023-08-31T17:06:05;6.90;;;3.10;;
62024;SDS011;47978;49.118;12.146;2023-08-31T17:10:07;7.40;;;2.67;;
62024;SDS011;47978;49.118;12.146;2023-08-31T17:14:10;8.10;;;2.70;;
62024;SDS011;47978;49.118;12.146;2023-08-31T17:18:13;5.43;;;2.92;;
62024;SDS011;47978;49.118;12.146;2023-08-31T17:22:15;6.20;;;2.72;;
62024;SDS011;47978;49.118;12.146;2023-08-31T17:26:20;4.55;;;2.92;;
62024;SDS011;47978;49.118;12.146;2023-08-31T17:30:22;6.45;;;3.08;;
62024;SDS011;47978;49.118;12.146;2023-08-31T17:34:25;7.63;;;2.88;;
62024;SDS011;47978;49.118;12.146;2023-08-31T17:38:26;8.60;;;2.78;;
62024;SDS011;47978;49.118;12.146;2023-08-31T17:42:28;6.60;;;3.03;;
62024;SDS011;47978;49.118;12.146;2023-08-31T17:46:30;3.67;;;2.40;;
62024;SDS011;47978;49.118;12.146;2023-08-31T17:50:32;5.35;;;3.03;;
62024;SDS011;47978;49.118;12.146;2023-08-31T17:54:34;6.15;;;3.15;;
62024;SDS011;47978;49.118;12.146;2023-08-31T17:58:36;5.18;;;3.10;;
62024;SDS011;47978;49.118;12.146;2023-08-31T18:02:37;7.00;;;3.17;;
62024;SDS011;47978;49.118;12.146;2023-08-31T18:06:40;6.25;;;3.03;;
62024;SDS011;47978;49.118;12.146;2023-08-31T18:10:42;6.35;;;3.40;;
62024;SDS011;47978;49.118;12.146;2023-08-31T18:14:44;6.78;;;3.30;;
62024;SDS011;47978;49.118;12.146;2023-08-31T18:18:45;7.28;;;3.10;;
62024;SDS011;47978;49.118;12.146;2023-08-31T18:22:48;5.57;;;2.75;;
62024;SDS011;47978;49.118;12.146;2023-08-31T18:26:50;5.55;;;3.38;;
62024;SDS011;47978;49.118;12.146;2023-08-31T18:30:52;6.70;;;3.00;;
62024;SDS011;47978;49.118;12.146;2023-08-31T18:34:54;6.78;;;3.35;;
62024;SDS011;47978;49.118;12.146;2023-08-31T18:38:57;6.72;;;3.25;;
62024;SDS011;47978;49.118;12.146;2023-08-31T18:42:59;4.53;;;2.75;;
62024;SDS011;47978;49.118;12.146;2023-08-31T18:47:00;8.25;;;3.25;;
62024;SDS011;47978;49.118;12.146;2023-08-31T18:51:02;7.03;;;3.35;;
62024;SDS011;47978;49.118;12.146;2023-08-31T18:55:06;5.10;;;2.92;;
62024;SDS011;47978;49.118;12.146;2023-08-31T18:59:08;5.55;;;3.33;;
62024;SDS011;47978;49.118;12.146;2023-08-31T19:03:10;8.45;;;2.80;;
62024;SDS011;47978;49.118;12.146;2023-08-31T19:07:11;6.25;;;3.22;;
62024;SDS011;47978;49.118;12.146;2023-08-31T19:11:14;6.35;;;3.45;;
62024;SDS011;47978;49.118;12.146;2023-08-31T19:15:16;5.30;;;2.88;;
62024;SDS011;47978;49.118;12.146;2023-08-31T19:19:18;10.07;;;3.60;;
62024;SDS011;47978;49.118;12.146;2023-08-31T19:23:20;10.50;;;4.05;;
62024;SDS011;47978;49.118;12.146;2023-08-31T19:27:23;9.95;;;3.83;;
62024;SDS011;47978;49.118;12.146;2023-08-31T19:35:26;7.53;;;3.83;;
62024;SDS011;47978;49.118;12.146;2023-08-31T19:39:31;5.18;;;3.13;;
62024;SDS011;47978;49.118;12.146;2023-08-31T19:43:33;5.50;;;3.58;;
62024;SDS011;47978;49.118;12.146;2023-08-31T19:47:35;5.35;;;3.17;;
62024;SDS011;47978;49.118;12.146;2023-08-31T19:51:37;5.05;;;3.55;;
62024;SDS011;47978;49.118;12.146;2023-08-31T19:55:38;7.15;;;3.10;;
62024;SDS011;47978;49.118;12.146;2023-08-31T19:59:41;8.13;;;3.65;;
62024;SDS011;47978;49.118;12.146;2023-08-31T20:03:43;6.65;;;3.67;;
62024;SDS011;47978;49.118;12.146;2023-08-31T20:07:44;7.82;;;3.30;;
62024;SDS011;47978;49.118;12.146;2023-08-31T20:11:46;9.02;;;3.35;;
62024;SDS011;47978;49.118;12.146;2023-08-31T20:15:49;8.10;;;3.50;;
62024;SDS011;47978;49.118;12.146;2023-08-31T20:19:51;17.10;;;3.92;;
62024;SDS011;47978;49.118;12.146;2023-08-31T20:23:52;7.43;;;3.30;;
62024;SDS011;47978;49.118;12.146;2023-08-31T20:27:54;9.82;;;3.63;;
62024;SDS011;47978;49.118;12.146;2023-08-31T20:31:57;7.53;;;4.63;;
62024;SDS011;47978;49.118;12.146;2023-08-31T20:36:02;7.15;;;3.40;;
62024;SDS011;47978;49.118;12.146;2023-08-31T20:40:05;5.97;;;3.90;;
62024;SDS011;47978;49.118;12.146;2023-08-31T20:44:07;6.25;;;3.15;;
62024;SDS011;47978;49.118;12.146;2023-08-31T20:48:10;6.75;;;3.38;;
62024;SDS011;47978;49.118;12.146;2023-08-31T20:52:12;5.53;;;3.20;;
62024;SDS011;47978;49.118;12.146;2023-08-31T20:56:13;6.45;;;3.50;;
62024;SDS011;47978;49.118;12.146;2023-08-31T21:00:19;6.70;;;3.38;;
62024;SDS011;47978;49.118;12.146;2023-08-31T21:04:22;9.77;;;3.53;;
62024;SDS011;47978;49.118;12.146;2023-08-31T21:08:23;7.13;;;3.88;;
62024;SDS011;47978;49.118;12.146;2023-08-31T21:12:25;8.63;;;3.55;;
62024;SDS011;47978;49.118;12.146;2023-08-31T21:16:26;9.18;;;3.72;;
62024;SDS011;47978;49.118;12.146;2023-08-31T21:20:33;5.93;;;3.50;;
62024;SDS011;47978;49.118;12.146;2023-08-31T21:28:36;4.35;;;2.97;;
62024;SDS011;47978;49.118;12.146;2023-08-31T21:32:38;6.18;;;3.70;;
62024;SDS011;47978;49.118;12.146;2023-08-31T21:36:41;5.55;;;3.38;;
62024;SDS011;47978;49.118;12.146;2023-08-31T21:40:43;5.15;;;3.42;;
62024;SDS011;47978;49.118;12.146;2023-08-31T21:44:45;8.02;;;4.03;;
62024;SDS011;47978;49.118;12.146;2023-08-31T21:48:47;10.73;;;4.18;;
62024;SDS011;47978;49.118;12.146;2023-08-31T21:52:49;11.70;;;3.95;;
62024;SDS011;47978;49.118;12.146;2023-08-31T21:56:51;7.10;;;3.80;;
62024;SDS011;47978;49.118;12.146;2023-08-31T22:00:53;7.20;;;3.85;;
62024;SDS011;47978;49.118;12.146;2023-08-31T22:04:54;18.15;;;4.43;;
62024;SDS011;47978;49.118;12.146;2023-08-31T22:08:57;7.07;;;4.03;;
62024;SDS011;47978;49.118;12.146;2023-08-31T22:12:59;10.13;;;3.92;;
62024;SDS011;47978;49.118;12.146;2023-08-31T22:17:00;6.57;;;4.25;;
62024;SDS011;47978;49.118;12.146;2023-08-31T22:21:02;5.80;;;3.75;;
62024;SDS011;47978;49.118;12.146;2023-08-31T22:25:05;8.48;;;4.10;;
62024;SDS011;47978;49.118;12.146;2023-08-31T22:29:07;7.75;;;3.47;;
62024;SDS011;47978;49.118;12.146;2023-08-31T22:33:09;10.13;;;3.72;;
62024;SDS011;47978;49.118;12.146;2023-08-31T22:37:11;12.70;;;3.60;;
62024;SDS011;47978;49.118;12.146;2023-08-31T22:41:14;8.05;;;4.40;;
62024;SDS011;47978;49.118;12.146;2023-08-31T22:45:15;10.48;;;4.45;;
62024;SDS011;47978;49.118;12.146;2023-08-31T22:49:17;9.55;;;4.00;;
62024;SDS011;47978;49.118;12.146;2023-08-31T22:53:18;10.27;;;4.35;;
62024;SDS011;47978;49.118;12.146;2023-08-31T22:57:21;6.03;;;3.97;;
62024;SDS011;47978;49.118;12.146;2023-08-31T23:01:23;9.95;;;3.97;;
62024;SDS011;47978;49.118;12.146;2023-08-31T23:05:25;10.25;;;4.00;;
62024;SDS011;47978;49.118;12.146;2023-08-31T23:09:26;7.47;;;4.03;;
62024;SDS011;47978;49.118;12.146;2023-08-31T23:13:29;8.82;;;3.72;;
62024;SDS011;47978;49.118;12.146;2023-08-31T23:17:31;7.55;;;3.72;;
62024;SDS011;47978;49.118;12.146;2023-08-31T23:21:32;10.75;;;4.05;;
62024;SDS011;47978;49.118;12.146;2023-08-31T23:25:43;6.38;;;3.50;;
62024;SDS011;47978;49.118;12.146;2023-08-31T23:29:46;17.58;;;4.10;;
62024;SDS011;47978;49.118;12.146;2023-08-31T23:33:48;5.72;;;4.07;;
62024;SDS011;47978;49.118;12.146;2023-08-31T23:37:49;5.97;;;4.18;;
62024;SDS011;47978;49.118;12.146;2023-08-31T23:41:51;6.20;;;4.38;;
62024;SDS011;47978;49.118;12.146;2023-08-31T23:45:54;6.28;;;3.92;;
62024;SDS011;47978;49.118;12.146;2023-08-31T23:49:55;9.82;;;4.35;;
62024;SDS011;47978;49.118;12.146;2023-08-31T23:53:57;9.20;;;4.63;;
62024;SDS011;47978;49.118;12.146;2023-08-31T23:57:58;7.22;;;4.30;;
